首页
METAR-TAF:

METAR-TAF

机场 :

Ingalls Field

温泉城, 弗吉尼亚州, 美国

纬度: 37-57N, 经度: 079-50W, 海拔: 1156米

当前天气观测

该预报发布于11分钟前的11:35 UTC
风速10节,风向西
温度 6°C
湿度 70%
气压 1027 hPa
能見度: 0.8公里

METAR: KHSP 191135Z AUTO 27010KT 1/2SM HZ VV005 06/01 A3032 RMK AO2 T00600011

时间: 07:46 (11:46 UTC)


TAF: 丢失

超过4000个机场的气象观测和天气预报(METAR&TAF报告)。

可查询的气象台以黄色和红色小点在地图上表示。

将鼠标移到小点上方,可查看气象台名称。

然后点击查看天气观测和预报。

如需切换地图:点击带黑十字的绿色按钮放大地图;点击带横线的绿色按钮缩小地图;或者点击绿色箭头查看邻近地区的地图。


METAR-TAF: